Time;durP1;ratioP1;P1;durP2;ratioP2;P2;SDS_P1;SDS_P2;PMS_P1;PMS_P2;Temp;Humidity;BMP_temperature;BMP_pressure;BME280_temperature;BME280_humidity;BME280_pressure;Samples;Min_cycle;Max_cycle;Signal;HPM_P1;HPM_P2
2024/01/26 00:00:04;;;;;;;13.27;4.28;;;;;;;6.36;51.26;94937.97;4190700;28;20538;-67
2024/01/26 00:02:07;;;;;;;10.38;4.07;;;;;;;6.40;51.44;94941.16;4194409;28;20375;-69
2024/01/26 00:04:09;;;;;;;10.70;3.85;;;;;;;6.29;51.38;94948.06;4195090;28;20208;-66
2024/01/26 00:06:12;;;;;;;11.10;3.83;;;;;;;6.21;52.14;94941.84;4193841;28;20545;-68
2024/01/26 00:08:16;;;;;;;13.18;4.57;;;;;;;6.21;51.85;94950.47;4193719;28;20490;-71
2024/01/26 00:10:18;;;;;;;9.10;4.30;;;;;;;6.31;52.17;94947.94;4192011;28;20048;-67
2024/01/26 00:12:20;;;;;;;11.85;4.43;;;;;;;6.27;52.05;94949.97;4189709;28;20088;-66
2024/01/26 00:14:23;;;;;;;7.97;3.78;;;;;;;6.31;51.91;94951.38;4186767;28;20052;-66
2024/01/26 00:16:25;;;;;;;14.70;4.53;;;;;;;6.16;52.11;94957.84;4192026;28;20059;-66
2024/01/26 00:18:27;;;;;;;9.63;4.38;;;;;;;6.11;52.00;94958.22;4192939;28;20036;-67
2024/01/26 00:20:29;;;;;;;10.45;4.00;;;;;;;6.18;52.04;94960.31;4194198;28;20055;-66
2024/01/26 00:22:31;;;;;;;9.77;4.35;;;;;;;6.21;52.26;94954.84;4186392;28;20067;-66
2024/01/26 00:24:34;;;;;;;11.27;4.43;;;;;;;6.27;52.25;94964.75;4185108;28;20079;-65
2024/01/26 00:26:36;;;;;;;12.15;4.38;;;;;;;6.21;51.89;94962.66;4192977;28;20115;-66
2024/01/26 00:28:41;;;;;;;11.70;4.15;;;;;;;6.05;52.29;94971.72;4194074;28;20045;-67
2024/01/26 00:30:43;;;;;;;11.40;4.00;;;;;;;6.11;52.60;94968.63;4193747;28;20537;-65
2024/01/26 00:32:45;;;;;;;8.95;3.63;;;;;;;5.95;52.26;94970.81;4194362;28;20311;-66
2024/01/26 00:34:49;;;;;;;11.02;3.97;;;;;;;5.82;52.71;94964.94;4192988;28;20115;-64
2024/01/26 00:36:51;;;;;;;10.73;3.78;;;;;;;5.67;52.86;94967.78;4187963;28;20048;-67
2024/01/26 00:38:54;;;;;;;10.73;3.60;;;;;;;5.76;53.13;94968.81;4179613;28;20214;-67
2024/01/26 00:40:57;;;;;;;9.82;3.75;;;;;;;5.82;52.56;94972.72;4186848;28;20094;-67
2024/01/26 00:42:59;;;;;;;12.27;3.97;;;;;;;5.86;52.49;94966.34;4182513;28;20049;-66
2024/01/26 00:45:01;;;;;;;9.20;3.80;;;;;;;5.78;52.81;94968.72;4190919;28;20105;-67
2024/01/26 00:47:03;;;;;;;10.95;4.57;;;;;;;5.79;52.81;94966.00;4186808;28;20403;-66
2024/01/26 00:49:05;;;;;;;9.82;3.55;;;;;;;5.71;53.16;94968.38;4188420;28;20045;-66
2024/01/26 00:51:08;;;;;;;9.20;3.63;;;;;;;5.65;53.20;94961.88;4181886;28;20422;-65
2024/01/26 00:53:10;;;;;;;10.50;3.60;;;;;;;5.73;52.83;94956.91;4194127;28;20052;-66
2024/01/26 00:55:11;;;;;;;10.77;3.60;;;;;;;5.75;52.74;94960.22;4191942;28;20513;-67
2024/01/26 00:57:13;;;;;;;13.38;4.10;;;;;;;5.68;52.73;94966.84;4191366;28;20407;-66
2024/01/26 00:59:16;;;;;;;9.20;3.30;;;;;;;5.59;52.67;94975.38;4187076;28;20056;-67
2024/01/26 01:01:19;;;;;;;7.43;2.95;;;;;;;5.65;52.47;94967.09;4191779;28;20335;-67
2024/01/26 01:03:21;;;;;;;8.63;3.17;;;;;;;5.49;53.12;94980.47;4190804;28;20056;-68
2024/01/26 01:05:23;;;;;;;7.88;3.50;;;;;;;5.45;52.61;94973.88;4191467;28;20048;-67
2024/01/26 01:07:27;;;;;;;7.57;3.10;;;;;;;5.51;52.47;94976.00;4182997;28;20372;-69
2024/01/26 01:09:28;;;;;;;8.77;2.83;;;;;;;5.42;52.76;94987.13;4188231;28;20302;-65
2024/01/26 01:11:31;;;;;;;9.48;2.90;;;;;;;5.32;52.50;94984.41;4188900;28;20076;-67
2024/01/26 01:13:33;;;;;;;11.65;3.33;;;;;;;5.34;52.86;94992.09;4185214;28;20040;-66
2024/01/26 01:15:37;;;;;;;10.70;2.85;;;;;;;5.30;53.26;94978.50;4179726;28;20088;-66
2024/01/26 01:17:40;;;;;;;10.27;3.20;;;;;;;5.31;53.51;94987.97;4185649;28;20049;-66
2024/01/26 01:19:42;;;;;;;8.80;3.03;;;;;;;5.37;52.91;94976.25;4189188;28;20070;-65
2024/01/26 01:21:45;;;;;;;11.70;3.10;;;;;;;5.38;52.96;94971.88;4183565;28;20060;-66
2024/01/26 01:23:47;;;;;;;9.20;3.45;;;;;;;5.32;52.89;94981.00;4191148;28;20437;-68
2024/01/26 01:26:08;;;;;;;10.00;3.13;;;;;;;5.29;52.88;94968.22;4191103;28;20040;-64
2024/01/26 01:28:10;;;;;;;10.15;3.10;;;;;;;5.34;53.23;94982.50;4191745;28;20129;-69
2024/01/26 01:30:12;;;;;;;8.40;2.70;;;;;;;5.30;53.27;94970.72;4189603;28;20608;-66
2024/01/26 01:32:14;;;;;;;10.60;3.20;;;;;;;5.17;53.13;94974.41;4192992;28;20491;-66
2024/01/26 01:34:17;;;;;;;9.45;3.25;;;;;;;5.18;53.39;94966.47;4191778;28;20104;-67
2024/01/26 01:36:19;;;;;;;11.13;2.75;;;;;;;5.08;53.40;94976.75;4185550;28;20052;-66
2024/01/26 01:38:23;;;;;;;8.05;3.00;;;;;;;5.15;53.46;94971.91;4194157;28;20568;-66
2024/01/26 01:40:25;;;;;;;9.38;2.78;;;;;;;5.16;52.93;94970.94;4190716;28;20044;-68
2024/01/26 01:42:27;;;;;;;10.43;3.13;;;;;;;5.18;53.20;94982.03;4191616;28;20183;-67
2024/01/26 01:44:29;;;;;;;9.73;2.78;;;;;;;5.21;53.49;94976.63;4186394;28;20396;-67
2024/01/26 01:46:31;;;;;;;8.55;2.97;;;;;;;5.14;53.45;95006.59;4181222;28;20049;-69
2024/01/26 01:48:33;;;;;;;10.05;3.15;;;;;;;5.11;53.45;94980.88;4186228;28;20131;-67
2024/01/26 01:50:35;;;;;;;9.38;2.97;;;;;;;5.17;53.83;94990.78;4188120;28;20064;-66
2024/01/26 01:52:43;;;;;;;9.18;2.92;;;;;;;5.06;53.68;95008.97;4194105;28;20044;-67
2024/01/26 01:54:47;;;;;;;9.55;3.35;;;;;;;5.09;53.93;94998.34;4192553;28;20240;-68
2024/01/26 01:56:51;;;;;;;12.18;3.45;;;;;;;5.17;53.72;95008.16;4192351;28;20170;-66
2024/01/26 01:58:53;;;;;;;8.70;2.97;;;;;;;5.10;53.54;95005.22;4185214;28;20048;-67
2024/01/26 02:00:55;;;;;;;7.97;3.22;;;;;;;5.21;53.79;95012.19;4186045;28;20191;-67
2024/01/26 02:02:57;;;;;;;7.43;2.95;;;;;;;5.21;53.37;95013.00;4188392;28;20045;-67
2024/01/26 02:04:59;;;;;;;7.25;2.97;;;;;;;5.23;53.77;95010.28;4179575;28;20114;-68
2024/01/26 02:07:04;;;;;;;9.23;2.92;;;;;;;5.26;53.89;95005.66;4189991;28;20048;-67
2024/01/26 02:09:06;;;;;;;10.43;2.72;;;;;;;5.25;53.58;95021.38;4195133;28;20076;-65
2024/01/26 02:11:08;;;;;;;11.52;3.15;;;;;;;5.23;53.87;95003.31;4190756;28;20048;-66
2024/01/26 02:13:10;;;;;;;9.23;3.40;;;;;;;5.25;53.20;94998.00;4186391;28;20052;-67
2024/01/26 02:15:13;;;;;;;10.50;3.28;;;;;;;5.20;53.60;95010.50;4182474;28;20056;-66
2024/01/26 02:17:16;;;;;;;9.82;3.17;;;;;;;5.19;53.17;94999.31;4192580;28;20060;-66
2024/01/26 02:19:17;;;;;;;9.32;3.08;;;;;;;5.19;53.27;94999.31;4180371;28;20055;-65
2024/01/26 02:21:20;;;;;;;7.20;2.83;;;;;;;5.20;53.37;95002.72;4188252;28;20552;-66
2024/01/26 02:23:23;;;;;;;7.22;3.00;;;;;;;5.26;53.13;94995.25;4191746;28;20063;-68
2024/01/26 02:25:25;;;;;;;7.65;2.72;;;;;;;5.26;52.73;94994.44;4188372;28;20056;-67
2024/01/26 02:27:27;;;;;;;10.27;3.58;;;;;;;5.23;53.28;94998.13;4185181;28;20127;-66
2024/01/26 02:29:28;;;;;;;9.63;2.70;;;;;;;5.22;52.39;95001.66;4190061;28;20168;-65
2024/01/26 02:31:32;;;;;;;8.32;2.60;;;;;;;5.24;52.56;94993.75;4188118;28;20044;-66
2024/01/26 02:33:35;;;;;;;9.10;2.40;;;;;;;5.23;52.86;94997.31;4192526;28;20048;-66
2024/01/26 02:35:37;;;;;;;8.48;3.22;;;;;;;5.32;52.94;94999.19;4193428;28;20487;-66
2024/01/26 02:37:39;;;;;;;8.77;3.03;;;;;;;5.35;52.75;94991.13;4190934;28;20650;-65
2024/01/26 02:39:41;;;;;;;9.90;2.95;;;;;;;5.36;52.60;94994.56;4191342;28;20087;-67
2024/01/26 02:41:43;;;;;;;7.18;2.60;;;;;;;5.38;52.50;94988.31;4189839;28;20134;-66
2024/01/26 02:43:44;;;;;;;6.80;2.63;;;;;;;5.40;52.15;94996.81;4187312;28;20124;-67
2024/01/26 02:45:47;;;;;;;11.45;3.10;;;;;;;5.43;52.39;94996.56;4191694;28;20049;-66
2024/01/26 02:47:49;;;;;;;10.68;2.95;;;;;;;5.39;51.83;94999.50;4191079;28;20127;-66
2024/01/26 02:49:51;;;;;;;11.55;3.47;;;;;;;5.43;51.68;95000.94;4191887;28;20055;-65
2024/01/26 02:51:52;;;;;;;10.15;2.83;;;;;;;5.43;51.98;94998.34;4186614;28;20183;-65
2024/01/26 02:53:56;;;;;;;8.55;3.40;;;;;;;5.42;52.46;95002.72;4188467;28;20052;-65
2024/01/26 02:55:58;;;;;;;9.98;2.97;;;;;;;5.49;51.75;95003.06;4189828;28;20502;-67
2024/01/26 02:58:00;;;;;;;9.73;2.80;;;;;;;5.54;51.79;95019.09;4193181;28;20047;-66
2024/01/26 03:00:04;;;;;;;8.27;3.05;;;;;;;5.48;51.62;95015.19;4191604;28;20166;-66
2024/01/26 03:02:06;;;;;;;8.27;2.63;;;;;;;5.42;52.39;95014.84;4192020;28;20076;-66
2024/01/26 03:04:08;;;;;;;12.95;3.50;;;;;;;5.51;52.24;95021.94;4190659;28;20044;-67
2024/01/26 03:06:11;;;;;;;12.05;2.85;;;;;;;5.44;52.30;95015.56;4184101;28;20049;-66
2024/01/26 03:08:13;;;;;;;8.35;2.80;;;;;;;5.45;51.93;95007.66;4191961;28;20045;-67
2024/01/26 03:10:15;;;;;;;10.55;3.05;;;;;;;5.45;52.32;95038.00;4191263;28;20058;-66
2024/01/26 03:12:17;;;;;;;9.57;2.90;;;;;;;5.46;52.12;95022.31;4189540;28;20499;-66
2024/01/26 03:14:21;;;;;;;6.88;2.58;;;;;;;5.50;52.19;95025.47;4192529;28;20114;-65
2024/01/26 03:16:23;;;;;;;9.18;3.10;;;;;;;5.53;52.46;95015.69;4191686;28;20490;-66
2024/01/26 03:18:24;;;;;;;10.40;3.35;;;;;;;5.57;52.00;95023.22;4187176;28;20053;-66
2024/01/26 03:20:26;;;;;;;7.68;3.00;;;;;;;5.62;52.02;95026.31;4192645;28;20048;-67
2024/01/26 03:22:28;;;;;;;9.98;3.42;;;;;;;5.70;52.04;95027.34;4191942;28;20142;-65
2024/01/26 03:24:31;;;;;;;10.07;3.05;;;;;;;5.73;51.87;95024.50;4189834;28;20075;-65
2024/01/26 03:26:34;;;;;;;6.38;3.08;;;;;;;5.71;51.92;95021.19;4186950;28;20076;-66
2024/01/26 03:28:35;;;;;;;9.65;2.97;;;;;;;5.61;52.59;95009.88;4194650;28;20083;-65
2024/01/26 03:30:38;;;;;;;8.52;2.67;;;;;;;5.53;51.80;95009.66;4188622;28;20041;-67
2024/01/26 03:32:40;;;;;;;8.27;3.03;;;;;;;5.52;52.28;95013.19;4194719;28;20048;-66
2024/01/26 03:34:42;;;;;;;8.15;2.65;;;;;;;5.56;52.89;95006.00;4195154;28;20049;-68
2024/01/26 03:36:44;;;;;;;9.85;3.33;;;;;;;5.60;52.29;94999.59;4196077;28;20044;-67
2024/01/26 03:38:46;;;;;;;11.93;3.10;;;;;;;5.56;52.39;94995.59;4195758;28;20292;-67
2024/01/26 03:40:48;;;;;;;7.18;3.17;;;;;;;5.64;52.54;95003.63;4195352;28;20114;-64
2024/01/26 03:42:50;;;;;;;9.23;3.00;;;;;;;5.71;51.76;95008.19;4192799;28;20049;-66
2024/01/26 03:44:52;;;;;;;10.00;3.40;;;;;;;5.60;52.56;94997.81;4192967;28;20051;-67
2024/01/26 03:46:54;;;;;;;13.32;3.75;;;;;;;5.57;52.22;94987.69;4191543;28;20078;-67
2024/01/26 03:48:56;;;;;;;10.35;3.10;;;;;;;5.51;52.93;95008.97;4193199;28;20055;-66
2024/01/26 03:50:59;;;;;;;9.85;3.05;;;;;;;5.45;52.11;95002.47;4191952;28;20048;-66
2024/01/26 03:53:00;;;;;;;10.40;2.92;;;;;;;5.53;52.32;95004.47;4195072;28;20532;-68
2024/01/26 03:55:06;;;;;;;9.10;3.42;;;;;;;5.46;52.25;94998.06;4195259;28;20052;-66
2024/01/26 03:57:08;;;;;;;10.07;3.03;;;;;;;5.62;51.90;95001.13;4193155;28;20124;-66
2024/01/26 03:59:10;;;;;;;7.38;2.60;;;;;;;5.65;52.44;95006.06;4194794;28;20128;-66
2024/01/26 04:01:12;;;;;;;10.48;3.13;;;;;;;5.71;51.73;94996.97;4185284;28;20489;-65
2024/01/26 04:03:14;;;;;;;9.68;3.35;;;;;;;5.60;51.92;94992.63;4195051;28;20084;-67
2024/01/26 04:05:15;;;;;;;7.97;2.70;;;;;;;5.63;51.59;94992.38;4191388;28;20446;-68
2024/01/26 04:07:17;;;;;;;10.23;3.00;;;;;;;5.54;51.94;95001.72;4193390;28;20413;-65
2024/01/26 04:09:19;;;;;;;9.32;3.38;;;;;;;5.50;51.73;95007.28;4194295;28;20049;-66
2024/01/26 04:11:21;;;;;;;7.82;2.65;;;;;;;5.59;52.14;95009.16;4190361;28;20596;-66
2024/01/26 04:13:23;;;;;;;10.10;3.13;;;;;;;5.61;51.88;95004.66;4177662;28;20072;-66
2024/01/26 04:15:25;;;;;;;11.20;2.90;;;;;;;5.68;52.17;95008.44;4182946;28;20103;-67
2024/01/26 04:17:28;;;;;;;7.90;2.88;;;;;;;5.71;52.46;95021.19;4195640;28;20056;-65
2024/01/26 04:19:30;;;;;;;13.15;2.55;;;;;;;5.77;51.75;95014.69;4185110;28;20052;-67
2024/01/26 04:21:32;;;;;;;13.60;3.35;;;;;;;5.86;51.47;95019.16;4194020;28;20053;-65
2024/01/26 04:23:33;;;;;;;11.07;2.83;;;;;;;5.86;51.29;95021.75;4192508;28;20096;-66
2024/01/26 04:25:37;;;;;;;7.35;3.10;;;;;;;5.82;51.29;95022.94;4191968;28;20045;-67
2024/01/26 04:27:39;;;;;;;9.02;3.38;;;;;;;5.69;51.75;95023.09;4195422;28;20089;-65
2024/01/26 04:29:40;;;;;;;9.25;2.85;;;;;;;5.73;51.66;95014.09;4195636;28;20438;-64
2024/01/26 04:31:43;;;;;;;7.95;2.80;;;;;;;5.70;51.45;95031.69;4192283;28;20083;-65
2024/01/26 04:33:44;;;;;;;11.23;2.95;;;;;;;5.63;51.22;95025.34;4174728;28;20049;-66
2024/01/26 04:35:46;;;;;;;13.43;3.25;;;;;;;5.50;51.33;95028.06;4179409;28;20546;-67
2024/01/26 04:37:51;;;;;;;7.50;2.60;;;;;;;5.55;51.43;95031.16;4192237;28;20098;-68
2024/01/26 04:39:56;;;;;;;11.73;3.40;;;;;;;5.33;52.31;95053.63;4195765;28;20058;-67
2024/01/26 04:41:59;;;;;;;8.50;2.53;;;;;;;5.37;51.99;95055.97;4191318;28;20487;-67
2024/01/26 04:44:01;;;;;;;8.35;2.80;;;;;;;5.51;51.83;95060.94;4192163;28;20548;-66
2024/01/26 04:46:04;;;;;;;8.65;3.13;;;;;;;5.60;51.91;95046.38;4190881;28;20086;-67
2024/01/26 04:48:07;;;;;;;8.80;3.25;;;;;;;5.71;51.94;95042.00;4185602;28;20052;-66
2024/01/26 04:50:09;;;;;;;10.07;2.57;;;;;;;5.74;51.56;95059.97;4194112;28;20079;-66
2024/01/26 04:52:11;;;;;;;11.40;2.90;;;;;;;5.68;51.17;95052.63;4194869;28;20285;-67
2024/01/26 04:54:13;;;;;;;7.65;2.65;;;;;;;5.62;51.60;95058.31;4193076;28;20041;-66
2024/01/26 04:56:15;;;;;;;15.13;3.10;;;;;;;5.61;51.64;95055.81;4186873;28;20453;-67
2024/01/26 04:58:17;;;;;;;7.80;3.10;;;;;;;5.62;51.13;95053.13;4185792;28;20404;-65
2024/01/26 05:00:19;;;;;;;10.15;2.75;;;;;;;5.51;51.71;95060.94;4190624;28;20053;-65
2024/01/26 05:02:22;;;;;;;7.57;2.70;;;;;;;5.46;52.24;95069.09;4189069;28;20501;-68
2024/01/26 05:04:23;;;;;;;12.55;3.13;;;;;;;5.42;51.97;95056.44;4188201;28;20092;-66
2024/01/26 05:06:26;;;;;;;9.45;2.75;;;;;;;5.38;52.28;95053.25;4186272;28;20130;-67
2024/01/26 05:08:28;;;;;;;8.43;2.90;;;;;;;5.41;52.70;95047.81;4194162;28;20042;-67
2024/01/26 05:10:31;;;;;;;10.68;2.88;;;;;;;5.30;52.27;95048.63;4173598;28;20059;-68
2024/01/26 05:12:34;;;;;;;7.13;3.00;;;;;;;5.32;52.79;95054.53;4193581;28;20395;-68
2024/01/26 05:14:36;;;;;;;9.25;2.80;;;;;;;5.29;53.08;95036.63;4180615;28;20130;-66
2024/01/26 05:16:38;;;;;;;8.40;3.25;;;;;;;5.36;52.90;95046.53;4189190;28;21345;-67
2024/01/26 05:18:40;;;;;;;11.18;3.38;;;;;;;5.34;52.72;95076.03;4194625;28;20328;-67
2024/01/26 05:20:42;;;;;;;6.82;3.15;;;;;;;5.31;52.73;95050.31;4188631;28;20046;-66
2024/01/26 05:22:44;;;;;;;9.13;3.05;;;;;;;5.24;53.23;95037.91;4194456;28;20484;-67
2024/01/26 05:24:46;;;;;;;6.70;2.90;;;;;;;5.21;52.90;95043.34;4192300;28;20056;-69
2024/01/26 05:26:48;;;;;;;9.85;3.30;;;;;;;5.23;52.84;95051.84;4184450;28;20264;-67
2024/01/26 05:28:50;;;;;;;7.15;2.67;;;;;;;5.27;52.67;95035.91;4193472;28;20127;-67
2024/01/26 05:30:52;;;;;;;9.50;2.85;;;;;;;5.21;52.49;95059.75;4180122;28;20450;-67
2024/01/26 05:32:54;;;;;;;11.63;3.60;;;;;;;5.34;52.10;95054.44;4189774;28;20411;-68
2024/01/26 05:34:56;;;;;;;12.57;3.88;;;;;;;5.22;52.43;95050.19;4193952;28;20056;-68
2024/01/26 05:36:58;;;;;;;8.93;3.85;;;;;;;5.24;52.18;95043.91;4192480;28;20049;-67
2024/01/26 05:39:00;;;;;;;9.05;2.67;;;;;;;5.19;51.94;95056.44;4187672;28;20131;-67
2024/01/26 05:41:02;;;;;;;9.73;3.28;;;;;;;5.20;52.25;95062.44;4189534;28;20052;-67
2024/01/26 05:43:05;;;;;;;8.82;3.63;;;;;;;5.06;52.92;95056.53;4190639;28;21648;-68
2024/01/26 05:45:08;;;;;;;8.40;2.95;;;;;;;5.08;52.89;95072.03;4189953;28;20592;-67
2024/01/26 05:47:10;;;;;;;7.55;2.80;;;;;;;5.03;53.03;95074.13;4188346;28;20078;-67
2024/01/26 05:49:13;;;;;;;7.38;2.78;;;;;;;5.04;53.10;95073.19;4194216;28;20049;-67
2024/01/26 05:51:15;;;;;;;8.68;3.33;;;;;;;5.05;52.42;95073.06;4192332;28;20367;-66
2024/01/26 05:53:17;;;;;;;9.73;3.50;;;;;;;5.09;52.45;95065.88;4193571;28;20064;-66
2024/01/26 05:55:19;;;;;;;6.63;2.78;;;;;;;5.08;52.32;95069.41;4191815;28;20048;-68
2024/01/26 05:57:22;;;;;;;6.95;3.17;;;;;;;5.18;52.37;95082.53;4189904;28;20048;-67
2024/01/26 05:59:24;;;;;;;10.73;2.90;;;;;;;5.05;52.56;95062.66;4189677;28;20095;-68
2024/01/26 06:01:25;;;;;;;10.85;2.92;;;;;;;4.99;52.84;95076.13;4189678;28;20109;-67
2024/01/26 06:03:27;;;;;;;7.10;2.58;;;;;;;4.93;52.88;95067.03;4189835;28;20059;-67
2024/01/26 06:05:30;;;;;;;8.23;2.90;;;;;;;4.96;52.70;95091.13;4191966;28;20480;-65
2024/01/26 06:07:32;;;;;;;8.45;3.45;;;;;;;4.90;53.51;95071.63;4188761;28;20055;-68
2024/01/26 06:09:34;;;;;;;9.38;3.22;;;;;;;5.01;52.48;95070.81;4192006;28;20044;-67
2024/01/26 06:11:36;;;;;;;8.27;3.20;;;;;;;5.13;52.73;95067.28;4189134;28;20135;-66
2024/01/26 06:13:40;;;;;;;9.68;3.58;;;;;;;5.08;52.76;95075.44;4191485;28;20450;-65
2024/01/26 06:15:43;;;;;;;9.18;3.50;;;;;;;5.00;53.18;95066.56;4181854;28;20078;-68
2024/01/26 06:17:46;;;;;;;8.00;2.95;;;;;;;5.06;52.41;95066.94;4188750;28;20053;-66
2024/01/26 06:19:48;;;;;;;10.15;3.47;;;;;;;4.94;52.91;95062.66;4180467;28;20044;-66
2024/01/26 06:21:51;;;;;;;7.63;2.75;;;;;;;4.92;53.09;95065.38;4188341;28;20548;-66
2024/01/26 06:23:53;;;;;;;9.13;3.30;;;;;;;4.98;53.35;95063.25;4193289;28;20075;-67
2024/01/26 06:25:55;;;;;;;10.40;3.60;;;;;;;4.99;53.41;95067.50;4192241;28;20783;-69
2024/01/26 06:27:57;;;;;;;10.18;3.10;;;;;;;5.11;52.32;95072.59;4185402;28;20064;-65
2024/01/26 06:29:59;;;;;;;7.03;2.80;;;;;;;5.02;53.01;95070.69;4190156;28;20044;-67
2024/01/26 06:32:01;;;;;;;7.85;3.00;;;;;;;4.97;52.91;95069.38;4191680;28;20244;-67
2024/01/26 06:34:03;;;;;;;8.90;3.40;;;;;;;5.14;52.05;95061.13;4193432;28;20500;-67
2024/01/26 06:36:06;;;;;;;8.93;3.17;;;;;;;5.06;52.59;95100.69;4190556;28;20052;-68
2024/01/26 06:38:07;;;;;;;9.30;3.00;;;;;;;5.16;52.33;95064.44;4191409;28;20044;-67
2024/01/26 06:40:12;;;;;;;9.57;2.60;;;;;;;5.16;52.48;95076.59;4192375;28;20048;-66
2024/01/26 06:42:13;;;;;;;;;;;;;;;5.18;52.33;95065.16;4182303;28;20075;-67
2024/01/26 06:44:22;;;;;;;10.35;3.20;;;;;;;5.32;52.25;95103.09;4190357;28;19928;-69
2024/01/26 06:46:24;;;;;;;9.95;3.38;;;;;;;5.21;51.74;95090.91;4191242;28;20044;-68
2024/01/26 06:48:27;;;;;;;10.88;3.67;;;;;;;5.33;51.89;95094.34;4190498;28;20526;-66
2024/01/26 06:50:29;;;;;;;8.60;3.03;;;;;;;5.32;52.01;95090.91;4192513;28;20471;-69
2024/01/26 06:52:32;;;;;;;13.13;3.63;;;;;;;5.31;51.83;95084.09;4192483;28;20048;-67
2024/01/26 06:54:34;;;;;;;11.27;3.33;;;;;;;5.24;51.97;95093.25;4188102;28;20094;-68
2024/01/26 06:56:38;;;;;;;11.82;3.35;;;;;;;5.30;51.26;95090.22;4185713;28;20054;-69
2024/01/26 06:58:40;;;;;;;8.20;2.92;;;;;;;5.28;51.68;95076.50;4183215;28;20423;-66
2024/01/26 07:00:42;;;;;;;9.70;3.22;;;;;;;5.34;51.88;95096.81;4189402;28;20063;-67
2024/01/26 07:02:46;;;;;;;7.20;3.05;;;;;;;5.25;51.81;95091.53;4187867;28;20094;-69
2024/01/26 07:04:47;;;;;;;11.18;3.60;;;;;;;5.39;51.35;95090.44;4190230;28;20052;-67
2024/01/26 07:06:50;;;;;;;12.55;3.58;;;;;;;5.43;51.26;95074.50;4191513;28;20055;-69
2024/01/26 07:08:54;;;;;;;10.32;3.13;;;;;;;5.43;51.43;95113.47;4190776;28;20797;-67
2024/01/26 07:10:56;;;;;;;;;;;;;;;5.29;51.38;95098.09;4187411;28;20569;-67
2024/01/26 07:12:59;;;;;;;6.75;3.20;;;;;;;5.03;51.96;95095.72;4193114;28;20263;-67
2024/01/26 07:15:05;;;;;;;9.25;3.17;;;;;;;5.20;51.36;95089.25;4188028;28;20067;-65
2024/01/26 07:17:07;;;;;;;11.07;2.85;;;;;;;5.30;50.89;95099.78;4192215;28;20051;-65
2024/01/26 07:19:09;;;;;;;9.63;2.67;;;;;;;5.40;50.87;95105.94;4193092;28;20131;-67
2024/01/26 07:21:12;;;;;;;8.27;3.00;;;;;;;5.39;50.20;95106.84;4186056;28;20139;-67
2024/01/26 07:23:14;;;;;;;8.32;2.60;;;;;;;5.50;50.65;95124.22;4192163;28;20052;-68
2024/01/26 07:25:19;;;;;;;6.38;2.47;;;;;;;5.55;50.44;95114.31;4191558;28;20052;-66
2024/01/26 07:27:23;;;;;;;12.07;2.83;;;;;;;5.25;51.06;95133.06;4189481;28;20098;-65
2024/01/26 07:29:25;;;;;;;9.48;3.35;;;;;;;5.32;50.38;95113.47;4183169;28;20041;-67
2024/01/26 07:31:27;;;;;;;8.88;2.95;;;;;;;5.58;50.64;95116.66;4191082;28;20053;-68
2024/01/26 07:33:29;;;;;;;7.55;2.85;;;;;;;5.75;50.02;95120.56;4184227;28;20049;-66
2024/01/26 07:35:31;;;;;;;6.55;2.67;;;;;;;5.79;50.06;95124.59;4184707;28;20048;-66
2024/01/26 07:37:33;;;;;;;7.78;2.92;;;;;;;5.95;49.91;95119.03;4188843;28;20053;-67
2024/01/26 07:39:35;;;;;;;9.15;2.88;;;;;;;6.03;49.29;95129.66;4189884;28;20048;-66
2024/01/26 07:41:37;;;;;;;7.85;2.60;;;;;;;5.83;49.28;95143.34;4182983;28;20360;-66
2024/01/26 07:43:39;;;;;;;8.15;2.95;;;;;;;5.89;49.64;95132.47;4190226;28;20127;-67
2024/01/26 07:45:41;;;;;;;7.63;2.85;;;;;;;5.88;49.94;95130.84;4190236;28;20055;-67
2024/01/26 07:47:44;;;;;;;7.43;2.47;;;;;;;5.72;50.19;95126.00;4187543;28;20045;-68
2024/01/26 07:49:48;;;;;;;7.63;3.15;;;;;;;5.87;49.78;95121.38;4179564;28;20464;-66
2024/01/26 07:51:50;;;;;;;6.60;2.85;;;;;;;5.69;50.36;95127.06;4186925;28;20478;-67
2024/01/26 07:53:52;;;;;;;7.43;2.63;;;;;;;5.81;49.91;95124.44;4192038;28;20056;-67
2024/01/26 07:55:54;;;;;;;8.05;2.60;;;;;;;5.64;50.04;95138.78;4185713;28;20060;-66
2024/01/26 07:57:56;;;;;;;9.07;2.60;;;;;;;5.49;50.25;95145.97;4190404;28;20044;-68
2024/01/26 07:59:59;;;;;;;6.30;2.55;;;;;;;5.20;51.47;95142.97;4190007;28;20768;-68
2024/01/26 08:02:01;;;;;;;6.07;2.47;;;;;;;5.20;50.93;95138.59;4191187;28;20044;-69
2024/01/26 08:04:03;;;;;;;8.50;2.83;;;;;;;5.19;50.81;95155.13;4185741;28;20052;-68
2024/01/26 08:06:07;;;;;;;9.52;2.40;;;;;;;5.12;51.47;95164.34;4192517;28;20051;-66
2024/01/26 08:08:10;;;;;;;7.80;2.72;;;;;;;5.16;51.13;95157.13;4181032;28;20488;-67
2024/01/26 08:10:12;;;;;;;12.75;2.83;;;;;;;5.04;51.89;95151.91;4188593;28;20044;-69
2024/01/26 08:12:20;;;;;;;11.50;3.22;;;;;;;5.19;51.67;95165.53;4187037;28;20135;-67
2024/01/26 08:14:39;;;;;;;8.23;2.90;;;;;;;5.00;52.12;95167.84;4189142;28;20117;-67
2024/01/26 08:16:41;;;;;;;6.40;2.30;;;;;;;4.95;52.25;95203.69;4189492;28;20048;-66
2024/01/26 08:18:45;;;;;;;7.68;2.65;;;;;;;5.05;52.75;95160.53;4195132;28;20036;-67
2024/01/26 08:20:47;;;;;;;9.05;2.60;;;;;;;5.05;52.07;95155.31;4190976;28;20280;-66
2024/01/26 08:22:50;;;;;;;8.07;2.60;;;;;;;4.98;51.96;95172.31;4185850;28;20045;-66
2024/01/26 08:24:53;;;;;;;7.35;2.78;;;;;;;4.97;52.85;95165.44;4185490;28;20076;-69
2024/01/26 08:26:55;;;;;;;10.00;2.67;;;;;;;4.93;52.74;95170.06;4193663;28;20045;-66
2024/01/26 08:28:59;;;;;;;8.05;3.03;;;;;;;5.09;52.61;95164.56;4196004;28;20544;-68
2024/01/26 08:31:01;;;;;;;8.73;3.00;;;;;;;5.19;52.87;95147.34;4192691;28;20045;-69
2024/01/26 08:33:04;;;;;;;7.43;2.88;;;;;;;5.25;52.04;95159.88;4192359;28;20140;-67
2024/01/26 08:35:09;;;;;;;6.35;2.88;;;;;;;5.27;51.81;95150.19;4186612;28;20141;-68
2024/01/26 08:37:12;;;;;;;11.25;3.05;;;;;;;5.38;52.36;95149.38;4203253;28;20053;-69
2024/01/26 08:39:17;;;;;;;10.80;3.13;;;;;;;5.27;51.86;95145.00;4189711;28;20106;-67
2024/01/26 08:41:19;;;;;;;7.90;2.95;;;;;;;5.41;51.67;95161.31;4190775;28;20052;-66
2024/01/26 08:43:23;;;;;;;11.93;3.10;;;;;;;5.21;51.70;95171.44;4192242;28;20465;-66
2024/01/26 08:45:25;;;;;;;12.77;3.72;;;;;;;5.32;51.98;95162.84;4189790;28;20054;-68
2024/01/26 08:47:27;;;;;;;10.93;2.70;;;;;;;5.38;51.16;95157.19;4194651;28;20737;-68
2024/01/26 08:49:29;;;;;;;8.55;2.70;;;;;;;5.26;51.87;95174.50;4190246;28;20045;-66
2024/01/26 08:51:33;;;;;;;9.63;3.50;;;;;;;5.37;51.57;95162.50;4192237;28;20080;-66
2024/01/26 08:53:35;;;;;;;9.50;3.20;;;;;;;5.23;51.73;95168.72;4195881;28;20132;-68
2024/01/26 08:55:39;;;;;;;9.77;3.15;;;;;;;5.26;52.28;95166.72;4193094;28;20413;-66
2024/01/26 08:57:45;;;;;;;7.85;2.80;;;;;;;5.41;51.43;95193.31;4187703;28;20048;-68
2024/01/26 08:59:47;;;;;;;8.15;3.05;;;;;;;5.25;52.11;95159.88;4181066;28;20037;-68
2024/01/26 09:01:49;;;;;;;7.78;2.80;;;;;;;5.13;52.00;95174.59;4189704;28;20059;-65
2024/01/26 09:03:52;;;;;;;11.73;2.97;;;;;;;5.23;52.06;95169.56;4193873;28;20055;-68
2024/01/26 09:05:54;;;;;;;7.82;2.80;;;;;;;5.40;51.78;95162.25;4192722;28;20059;-68
2024/01/26 09:07:57;;;;;;;9.75;3.28;;;;;;;5.49;51.83;95162.38;4193324;28;20482;-70
2024/01/26 09:09:59;;;;;;;8.60;3.38;;;;;;;5.40;52.13;95150.09;4188054;28;20048;-69
2024/01/26 09:12:01;;;;;;;5.95;2.63;;;;;;;5.56;51.01;95162.75;4187848;28;20542;-68
2024/01/26 09:14:03;;;;;;;6.88;2.70;;;;;;;5.44;51.17;95166.25;4184663;28;20131;-67
2024/01/26 09:16:11;;;;;;;16.40;3.35;;;;;;;5.50;51.90;95163.19;4175485;28;20056;-67
2024/01/26 09:18:13;;;;;;;8.90;2.75;;;;;;;5.65;52.10;95159.44;4188974;28;20094;-68
2024/01/26 09:20:15;;;;;;;7.05;2.83;;;;;;;5.86;51.49;95159.56;4177049;28;20051;-68
2024/01/26 09:22:18;;;;;;;11.38;3.17;;;;;;;6.19;50.73;95150.09;4193784;28;20135;-68
2024/01/26 09:24:19;;;;;;;11.60;3.83;;;;;;;6.30;50.78;95159.63;4195037;28;20124;-69
2024/01/26 09:26:22;;;;;;;8.77;3.35;;;;;;;6.39;49.68;95148.53;4194952;28;20053;-67
2024/01/26 09:28:26;;;;;;;6.95;2.70;;;;;;;6.41;49.75;95148.38;4188662;28;20052;-68
2024/01/26 09:30:30;;;;;;;7.00;2.92;;;;;;;6.39;49.86;95139.88;4190817;28;20075;-69
2024/01/26 09:32:33;;;;;;;8.20;2.83;;;;;;;6.28;49.53;95164.13;4188899;28;20094;-69
2024/01/26 09:34:36;;;;;;;10.35;2.45;;;;;;;6.58;49.40;95142.66;4192238;28;20060;-68
2024/01/26 09:36:38;;;;;;;9.40;2.90;;;;;;;6.52;49.52;95141.38;4192774;28;20194;-68
2024/01/26 09:38:40;;;;;;;8.25;2.88;;;;;;;6.41;49.88;95156.19;4194607;28;20181;-68
2024/01/26 09:40:42;;;;;;;7.78;2.70;;;;;;;6.44;49.49;95148.97;4192871;28;20169;-69